Terminal Aerodrome Forecast
Issued by NWS Cleveland, OH

Home | Current Version | Previous Version | Text Only | Print | Product List | Glossary Off
Versions: 1 2 3 4 5 6 7 8 9 10 11 12 13 14 15 16 17

000
FTUS41 KCLE 290530
TAFMFD
TAF
KMFD 290530Z 2906/3006 VRB04KT P6SM SCT025 BKN050
     FM290900 11006KT 4SM BR BKN006 OVC012
     FM291700 06010KT P6SM VCSH BKN006 OVC012
      TEMPO 2923/3003 4SM -RA OVC003=

USA.gov is the U.S. government's official web portal to all federal, state and local government web resources and services.